Terminal Aerodrome Forecast
Issued by NWS Sterling, VA

Home | Current Version | Previous Version | Text Only | Print | Product List | Glossary On
Versions: 1 2 3 4 5 6 7 8 9 10 11 12 13 14 15 16 17 18 19 20 21 22 23 24 25 26 27 28
000
FTUS41 KLWX 290223 AAA
TAFIAD
TAF AMD
KIAD 290223Z 2902/3006 32009KT P6SM SKC
     FM291800 26005KT P6SM FEW250
     FM292200 21005KT P6SM SCT250
     FM300500 19009KT P6SM OVC090=

USA.gov is the U.S. government's official web portal to all federal, state and local government web resources and services.